createdAt,value
2023-03-15T00:02:15.020Z,3.78
2023-03-15T00:04:42.021Z,3.88
2023-03-15T00:07:09.126Z,4.10
2023-03-15T00:09:36.115Z,3.91
2023-03-15T00:12:03.209Z,4.04
2023-03-15T00:14:30.274Z,3.83
2023-03-15T00:16:57.442Z,3.85
2023-03-15T00:19:24.559Z,3.84
2023-03-15T00:21:51.501Z,3.93
2023-03-15T00:24:18.637Z,3.77
2023-03-15T00:26:45.712Z,3.47
2023-03-15T00:29:12.860Z,3.45
2023-03-15T00:31:39.946Z,4.07
2023-03-15T00:34:06.968Z,4.08
2023-03-15T00:36:33.923Z,3.76
2023-03-15T00:39:00.913Z,3.73
2023-03-15T00:41:27.960Z,3.65
2023-03-15T00:43:54.910Z,4.08
2023-03-15T00:46:21.943Z,4.08
2023-03-15T00:48:50.610Z,4.10
2023-03-15T00:51:21.564Z,3.48
2023-03-15T00:53:50.182Z,4.13
2023-03-15T00:56:20.818Z,4.08
2023-03-15T00:58:48.406Z,4.12
2023-03-15T01:01:21.337Z,4.20
2023-03-15T01:03:48.929Z,4.23
2023-03-15T01:06:18.340Z,4.16
2023-03-15T01:08:47.575Z,4.05
2023-03-15T01:11:17.915Z,3.89
2023-03-15T01:13:44.938Z,4.09
2023-03-15T01:16:14.424Z,4.12
2023-03-15T01:18:42.886Z,4.21
2023-03-15T01:21:12.678Z,4.18
2023-03-15T01:23:39.928Z,4.12
2023-03-15T01:26:10.431Z,4.14
2023-03-15T01:28:37.583Z,4.15
2023-03-15T01:31:05.086Z,4.19
2023-03-15T01:33:32.379Z,4.13
2023-03-15T01:36:05.078Z,3.93
2023-03-15T01:38:34.081Z,4.10
2023-03-15T01:41:01.799Z,3.78
2023-03-15T01:43:32.132Z,4.14
2023-03-15T01:45:59.630Z,3.98
2023-03-15T01:48:51.869Z,3.97
2023-03-15T01:51:32.980Z,3.92
2023-03-15T01:54:08.499Z,3.65
2023-03-15T01:56:40.005Z,3.87
2023-03-15T01:59:11.967Z,3.40
2023-03-15T02:01:45.785Z,3.66
2023-03-15T02:04:18.886Z,3.57
2023-03-15T02:06:48.170Z,3.71
2023-03-15T02:09:18.704Z,3.46
2023-03-15T02:11:48.091Z,3.60
2023-03-15T02:14:17.189Z,3.77
2023-03-15T02:16:45.236Z,3.59
2023-03-15T02:19:48.973Z,2.98
2023-03-15T02:22:41.017Z,3.69
2023-03-15T02:25:20.891Z,3.66
2023-03-15T02:27:48.284Z,3.55
2023-03-15T02:30:15.666Z,3.23
2023-03-15T02:32:42.773Z,3.60
2023-03-15T02:35:09.904Z,3.60
2023-03-15T02:37:46.050Z,3.32
2023-03-15T02:40:19.521Z,3.53
2023-03-15T02:42:48.608Z,3.22
2023-03-15T02:45:15.737Z,3.20
2023-03-15T02:47:44.685Z,3.54
2023-03-15T02:50:11.970Z,3.46
2023-03-15T02:52:39.502Z,3.07
2023-03-15T02:55:07.152Z,3.21
2023-03-15T02:57:35.794Z,2.80
2023-03-15T03:00:13.340Z,3.42
2023-03-15T03:02:42.489Z,3.58
2023-03-15T03:05:13.361Z,3.48
2023-03-15T03:07:43.004Z,3.21
2023-03-15T03:10:16.235Z,3.12
2023-03-15T03:12:53.712Z,3.32
2023-03-15T03:15:27.712Z,2.84
2023-03-15T03:17:54.747Z,3.17
2023-03-15T03:20:23.582Z,3.18
2023-03-15T03:22:50.562Z,2.76
2023-03-15T03:25:18.524Z,3.06
2023-03-15T03:27:47.723Z,3.21
2023-03-15T03:30:15.981Z,3.40
2023-03-15T03:32:48.670Z,2.91
2023-03-15T03:35:16.298Z,3.31
2023-03-15T03:37:43.558Z,3.22
2023-03-15T03:40:18.172Z,3.14
2023-03-15T03:42:45.539Z,3.09
2023-03-15T03:45:12.987Z,3.40
2023-03-15T03:47:43.388Z,3.40
2023-03-15T03:50:12.058Z,3.16
2023-03-15T03:52:39.811Z,2.99
2023-03-15T03:55:15.049Z,2.97
2023-03-15T03:57:43.811Z,3.44
2023-03-15T04:00:16.425Z,3.28
2023-03-15T04:02:43.942Z,3.41
2023-03-15T04:05:13.872Z,3.58
2023-03-15T04:07:41.717Z,3.05
2023-03-15T04:10:14.941Z,3.33
2023-03-15T04:12:45.535Z,3.16
2023-03-15T04:15:14.115Z,3.36
2023-03-15T04:17:41.673Z,3.45
2023-03-15T04:20:13.144Z,3.12
2023-03-15T04:22:49.739Z,3.27
2023-03-15T04:25:39.707Z,3.33
2023-03-15T04:28:32.771Z,3.13
2023-03-15T04:31:15.028Z,3.38
2023-03-15T04:33:57.229Z,3.28
2023-03-15T04:37:02.585Z,3.14
2023-03-15T04:39:39.260Z,3.40
2023-03-15T04:42:26.286Z,3.45
2023-03-15T04:45:12.674Z,3.21
2023-03-15T04:47:58.558Z,3.00
2023-03-15T04:50:51.175Z,3.36
2023-03-15T04:53:40.005Z,3.43
2023-03-15T04:56:18.844Z,3.23
2023-03-15T04:59:05.367Z,3.37
2023-03-15T05:01:50.962Z,3.24
2023-03-15T05:04:21.783Z,3.41
2023-03-15T05:06:55.827Z,2.93
2023-03-15T05:09:52.355Z,3.34
2023-03-15T05:12:25.481Z,2.78
2023-03-15T05:15:13.999Z,3.01
2023-03-15T05:17:59.531Z,3.11
2023-03-15T05:20:40.936Z,3.26
2023-03-15T05:23:17.247Z,3.14
2023-03-15T05:26:03.874Z,3.35
2023-03-15T05:28:49.337Z,3.60
2023-03-15T05:31:45.190Z,3.68
2023-03-15T05:34:32.476Z,3.61
2023-03-15T05:37:00.101Z,3.62
2023-03-15T05:39:35.216Z,3.54
2023-03-15T05:42:14.292Z,4.06
2023-03-15T05:45:01.458Z,4.10
2023-03-15T05:47:47.126Z,4.21
2023-03-15T05:50:28.402Z,4.17
2023-03-15T05:53:14.201Z,4.13
2023-03-15T05:56:10.244Z,4.34
2023-03-15T05:58:55.599Z,4.27
2023-03-15T06:01:41.079Z,3.84
2023-03-15T06:04:30.835Z,4.42
2023-03-15T06:06:58.694Z,4.43
2023-03-15T06:09:25.961Z,4.67
2023-03-15T06:11:53.790Z,4.62
2023-03-15T06:14:21.794Z,4.48
2023-03-15T06:16:52.019Z,4.33
2023-03-15T06:19:20.331Z,4.92
2023-03-15T06:21:48.224Z,4.98
2023-03-15T06:24:25.339Z,4.69
2023-03-15T06:26:56.494Z,4.85
2023-03-15T06:29:24.144Z,5.17
2023-03-15T06:31:53.772Z,4.66
2023-03-15T06:34:21.379Z,4.74
2023-03-15T06:36:49.952Z,4.96
2023-03-15T06:39:17.259Z,5.34
2023-03-15T06:41:44.448Z,5.40
2023-03-15T06:44:17.428Z,4.86
2023-03-15T06:46:46.072Z,5.03
2023-03-15T06:49:13.106Z,5.23
2023-03-15T06:51:42.976Z,5.82
2023-03-15T06:54:10.041Z,5.91
2023-03-15T06:56:37.547Z,5.27
2023-03-15T06:59:05.271Z,5.95
2023-03-15T07:01:32.394Z,5.75
2023-03-15T07:03:59.481Z,6.15
2023-03-15T07:06:28.407Z,6.22
2023-03-15T07:08:55.548Z,6.05
2023-03-15T07:11:22.626Z,6.28
2023-03-15T07:13:49.900Z,6.41
2023-03-15T07:16:16.974Z,6.25
2023-03-15T07:18:44.172Z,6.40
2023-03-15T07:21:11.210Z,6.56
2023-03-15T07:23:38.285Z,6.34
2023-03-15T07:26:05.365Z,6.42
2023-03-15T07:28:32.832Z,6.71
2023-03-15T07:31:02.712Z,6.79
2023-03-15T07:33:32.280Z,6.81
2023-03-15T07:36:00.459Z,6.88
2023-03-15T07:38:31.173Z,6.82
2023-03-15T07:40:58.802Z,6.81
2023-03-15T07:43:25.868Z,6.70
2023-03-15T07:46:07.002Z,6.69
2023-03-15T07:48:34.155Z,7.11
2023-03-15T07:51:01.076Z,7.12
2023-03-15T07:53:28.650Z,6.97
2023-03-15T07:55:56.031Z,7.22
2023-03-15T07:58:23.279Z,6.86
2023-03-15T08:00:50.654Z,7.29
2023-03-15T08:03:17.820Z,7.34
2023-03-15T08:05:44.708Z,7.10
2023-03-15T08:08:11.761Z,7.16
2023-03-15T08:10:38.883Z,7.11
2023-03-15T08:13:06.054Z,7.52
2023-03-15T08:15:33.055Z,7.43
2023-03-15T08:18:00.412Z,7.76
2023-03-15T08:20:29.632Z,7.65
2023-03-15T08:22:57.279Z,7.35
2023-03-15T08:25:25.234Z,7.73
2023-03-15T08:27:53.095Z,8.04
2023-03-15T08:30:21.628Z,8.03
2023-03-15T08:32:50.191Z,8.14
2023-03-15T08:35:17.808Z,8.27
2023-03-15T08:37:48.156Z,7.90
2023-03-15T08:40:19.252Z,8.21
2023-03-15T08:42:46.573Z,8.59
2023-03-15T08:45:13.555Z,8.92
2023-03-15T08:47:40.635Z,8.92
2023-03-15T08:50:13.873Z,8.54
2023-03-15T08:52:41.352Z,9.05
2023-03-15T08:55:09.216Z,9.14
2023-03-15T08:57:36.290Z,8.86
2023-03-15T09:00:24.059Z,9.08
2023-03-15T09:02:52.419Z,9.03
2023-03-15T09:05:21.248Z,9.70
2023-03-15T09:07:48.921Z,9.60
2023-03-15T09:10:17.477Z,9.73
2023-03-15T09:12:47.090Z,9.76
2023-03-15T09:15:15.205Z,9.72
2023-03-15T09:17:42.970Z,9.42
2023-03-15T09:20:16.962Z,9.25
2023-03-15T09:22:49.676Z,9.11
2023-03-15T09:25:16.785Z,9.63
2023-03-15T09:27:43.822Z,9.37
2023-03-15T09:30:11.669Z,9.52
2023-03-15T09:32:41.647Z,9.13
2023-03-15T09:35:12.744Z,9.49
2023-03-15T09:37:40.036Z,9.44
2023-03-15T09:40:08.807Z,9.16
2023-03-15T09:43:09.025Z,8.62
2023-03-15T09:46:04.036Z,9.03
2023-03-15T09:48:54.941Z,9.66
2023-03-15T09:51:40.287Z,9.60
2023-03-15T09:54:19.485Z,9.55
2023-03-15T09:56:56.408Z,9.57
2023-03-15T09:59:30.100Z,9.26
2023-03-15T10:02:01.419Z,9.72
2023-03-15T10:04:31.914Z,9.75
2023-03-15T10:07:04.197Z,9.52
2023-03-15T10:09:36.540Z,9.98
2023-03-15T10:12:10.693Z,9.65
2023-03-15T10:14:40.986Z,10.12
2023-03-15T10:17:19.390Z,9.86
2023-03-15T10:19:52.066Z,10.36
2023-03-15T10:22:35.817Z,10.30
2023-03-15T10:25:23.542Z,10.52
2023-03-15T10:28:11.081Z,10.47
2023-03-15T10:30:40.184Z,10.73
2023-03-15T10:33:36.258Z,10.75
2023-03-15T10:36:31.823Z,10.89
2023-03-15T10:38:58.981Z,10.50
2023-03-15T10:41:39.074Z,10.58
2023-03-15T10:44:13.834Z,10.63
2023-03-15T10:46:41.133Z,10.52
2023-03-15T10:49:16.970Z,10.81
2023-03-15T10:51:46.804Z,10.77
2023-03-15T10:54:20.417Z,10.44
2023-03-15T10:56:57.332Z,10.24
2023-03-15T10:59:26.987Z,10.22
2023-03-15T11:02:08.217Z,10.34
2023-03-15T11:04:41.321Z,10.07
2023-03-15T11:07:08.698Z,10.32
2023-03-15T11:09:45.913Z,10.33
2023-03-15T11:12:24.301Z,9.78
2023-03-15T11:15:14.344Z,10.38
2023-03-15T11:17:48.009Z,10.09
2023-03-15T11:20:31.592Z,10.22
2023-03-15T11:23:00.977Z,9.86
2023-03-15T11:25:32.100Z,10.06
2023-03-15T11:28:01.720Z,9.98
2023-03-15T11:30:32.567Z,9.96
2023-03-15T11:33:05.926Z,10.14
2023-03-15T11:35:39.068Z,10.11
2023-03-15T11:38:17.453Z,10.36
2023-03-15T11:40:49.047Z,10.11
2023-03-15T11:43:19.694Z,9.38
2023-03-15T11:46:03.776Z,9.50
2023-03-15T11:48:44.536Z,8.94
2023-03-15T11:51:13.025Z,9.47
2023-03-15T11:53:55.663Z,9.40
2023-03-15T11:56:29.270Z,8.99
2023-03-15T11:59:05.224Z,9.40
2023-03-15T12:01:34.764Z,8.49
2023-03-15T12:04:26.365Z,9.12
2023-03-15T12:07:00.538Z,8.32
2023-03-15T12:09:33.755Z,9.05
2023-03-15T12:12:05.084Z,8.79
2023-03-15T12:14:37.753Z,8.34
2023-03-15T12:17:29.140Z,9.05
2023-03-15T12:20:01.094Z,8.25
2023-03-15T12:22:34.011Z,8.56
2023-03-15T12:25:14.828Z,9.01
2023-03-15T12:27:50.095Z,8.20
2023-03-15T12:30:33.799Z,8.37
2023-03-15T12:33:03.609Z,8.34
2023-03-15T12:35:41.997Z,8.28
2023-03-15T12:38:23.209Z,8.45
2023-03-15T12:40:58.361Z,8.38
2023-03-15T12:43:44.773Z,8.84
2023-03-15T12:46:36.966Z,8.97
2023-03-15T12:49:07.099Z,9.10
2023-03-15T12:52:01.445Z,9.18
2023-03-15T12:54:40.864Z,9.16
2023-03-15T12:57:11.702Z,8.71
2023-03-15T12:59:44.110Z,8.41
2023-03-15T13:02:23.166Z,8.81
2023-03-15T13:05:21.508Z,9.41
2023-03-15T13:08:16.884Z,9.37
2023-03-15T13:11:11.361Z,9.42
2023-03-15T13:14:03.275Z,9.46
2023-03-15T13:16:43.791Z,9.31
2023-03-15T13:19:16.959Z,9.50
2023-03-15T13:22:05.369Z,9.50
2023-03-15T13:25:00.848Z,8.65
2023-03-15T13:27:46.511Z,9.25
2023-03-15T13:30:46.762Z,9.34
2023-03-15T13:33:21.282Z,9.33
2023-03-15T13:36:16.398Z,9.47
2023-03-15T13:38:55.535Z,9.58
2023-03-15T13:41:28.057Z,9.58
2023-03-15T13:43:58.717Z,9.51
2023-03-15T13:46:29.826Z,9.60
2023-03-15T13:48:57.269Z,9.65
2023-03-15T13:51:31.838Z,9.62
2023-03-15T13:54:02.043Z,9.73
2023-03-15T13:56:49.222Z,9.98
2023-03-15T13:59:18.274Z,9.98
2023-03-15T14:01:45.766Z,9.67
2023-03-15T14:04:17.639Z,9.94
2023-03-15T14:06:49.780Z,9.81
2023-03-15T14:09:26.066Z,10.27
2023-03-15T14:12:05.322Z,10.11
2023-03-15T14:14:36.201Z,9.87
2023-03-15T14:17:17.983Z,10.33
2023-03-15T14:19:54.392Z,10.19
2023-03-15T14:22:21.938Z,9.81
2023-03-15T14:24:53.203Z,9.67
2023-03-15T14:27:21.549Z,10.67
2023-03-15T14:30:00.089Z,10.52
2023-03-15T14:32:39.050Z,10.62
2023-03-15T14:35:22.329Z,10.46
2023-03-15T14:38:15.716Z,10.09
2023-03-15T14:40:42.850Z,10.61
2023-03-15T14:43:12.170Z,10.01
2023-03-15T14:45:42.430Z,10.17
2023-03-15T14:48:15.879Z,10.16
2023-03-15T14:50:45.965Z,10.53
2023-03-15T14:53:21.017Z,10.72
2023-03-15T14:55:49.827Z,10.77
2023-03-15T14:58:21.712Z,10.11
2023-03-15T15:00:51.171Z,10.63
2023-03-15T15:03:24.364Z,10.15
2023-03-15T15:05:52.080Z,9.68
2023-03-15T15:08:24.270Z,10.07
2023-03-15T15:10:55.559Z,9.96
2023-03-15T15:13:28.269Z,9.53
2023-03-15T15:15:56.996Z,9.36
2023-03-15T15:18:26.883Z,8.99
2023-03-15T15:20:56.313Z,9.36
2023-03-15T15:23:27.332Z,9.60
2023-03-15T15:26:01.852Z,9.16
2023-03-15T15:28:36.044Z,9.21
2023-03-15T15:31:05.253Z,9.54
2023-03-15T15:33:32.589Z,9.11
2023-03-15T15:36:03.827Z,8.86
2023-03-15T15:38:38.581Z,9.11
2023-03-15T15:41:12.378Z,9.25
2023-03-15T15:43:39.641Z,9.36
2023-03-15T15:46:08.903Z,9.05
2023-03-15T15:48:35.984Z,9.31
2023-03-15T15:51:03.553Z,9.35
2023-03-15T15:53:33.581Z,9.31
2023-03-15T15:56:00.995Z,9.62
2023-03-15T15:58:31.039Z,9.30
2023-03-15T16:00:58.344Z,9.54
2023-03-15T16:03:26.132Z,9.42
2023-03-15T16:05:53.334Z,9.43
2023-03-15T16:08:24.206Z,9.79
2023-03-15T16:10:51.694Z,9.37
2023-03-15T16:13:18.957Z,9.86
2023-03-15T16:15:46.253Z,9.35
2023-03-15T16:18:13.553Z,9.87
2023-03-15T16:20:46.746Z,9.69
2023-03-15T16:23:24.472Z,9.72
2023-03-15T16:25:55.667Z,9.57
2023-03-15T16:28:24.087Z,9.39
2023-03-15T16:30:51.523Z,9.66
2023-03-15T16:33:21.350Z,9.96
2023-03-15T16:35:50.535Z,9.97
2023-03-15T16:38:26.270Z,9.95
2023-03-15T16:40:53.553Z,9.68
2023-03-15T16:43:21.055Z,9.65
2023-03-15T16:45:48.852Z,9.68
2023-03-15T16:48:15.959Z,9.90
2023-03-15T16:50:44.547Z,9.44
2023-03-15T16:53:13.770Z,9.56
2023-03-15T16:55:41.050Z,9.83
2023-03-15T16:58:19.592Z,9.59
2023-03-15T17:00:48.459Z,9.82
2023-03-15T17:03:16.961Z,9.61
2023-03-15T17:05:46.553Z,9.35
2023-03-15T17:08:18.920Z,9.57
2023-03-15T17:10:46.322Z,9.37
2023-03-15T17:13:15.688Z,9.75
2023-03-15T17:15:42.890Z,9.73
2023-03-15T17:18:18.706Z,9.58
2023-03-15T17:20:49.541Z,9.30
2023-03-15T17:23:18.022Z,9.25
2023-03-15T17:25:45.156Z,9.52
2023-03-15T17:28:12.400Z,9.57
2023-03-15T17:30:39.377Z,9.59
2023-03-15T17:33:07.114Z,9.59
2023-03-15T17:35:38.024Z,9.32
2023-03-15T17:38:07.254Z,9.58
2023-03-15T17:40:36.518Z,9.24
2023-03-15T17:43:13.991Z,9.23
2023-03-15T17:45:41.986Z,8.81
2023-03-15T17:48:09.052Z,9.32
2023-03-15T17:50:36.643Z,9.24
2023-03-15T17:53:15.038Z,8.96
2023-03-15T17:55:42.277Z,9.10
2023-03-15T17:58:18.206Z,9.38
2023-03-15T18:00:45.811Z,9.22
2023-03-15T18:03:14.376Z,9.06
2023-03-15T18:05:41.852Z,9.13
2023-03-15T18:08:21.207Z,9.12
2023-03-15T18:10:50.055Z,8.54
2023-03-15T18:13:19.698Z,8.38
2023-03-15T18:15:47.708Z,8.02
2023-03-15T18:18:15.096Z,8.47
2023-03-15T18:20:42.579Z,8.11
2023-03-15T18:23:14.248Z,8.11
2023-03-15T18:25:41.835Z,8.10
2023-03-15T18:28:08.878Z,8.05
2023-03-15T18:30:35.843Z,8.46
2023-03-15T18:33:04.362Z,8.21
2023-03-15T18:35:36.094Z,8.09
2023-03-15T18:38:04.506Z,8.40
2023-03-15T18:40:33.871Z,8.02
2023-03-15T18:43:01.637Z,8.05
2023-03-15T18:45:31.508Z,8.35
2023-03-15T18:48:00.066Z,8.33
2023-03-15T18:50:28.639Z,8.09
2023-03-15T18:52:56.082Z,8.00
2023-03-15T18:55:24.215Z,7.61
2023-03-15T18:57:53.885Z,7.60
2023-03-15T19:00:27.502Z,7.88
2023-03-15T19:02:56.761Z,7.81
2023-03-15T19:05:25.090Z,7.99
2023-03-15T19:07:52.260Z,7.98
2023-03-15T19:10:20.800Z,7.76
2023-03-15T19:12:48.627Z,7.65
2023-03-15T19:15:18.026Z,7.95
2023-03-15T19:17:47.014Z,7.59
2023-03-15T19:20:16.601Z,7.41
2023-03-15T19:22:45.252Z,7.23
2023-03-15T19:25:14.047Z,6.73
2023-03-15T19:27:47.651Z,7.71
2023-03-15T19:30:18.285Z,7.73
2023-03-15T19:32:47.097Z,7.74
2023-03-15T19:35:14.576Z,7.57
2023-03-15T19:37:44.529Z,7.61
2023-03-15T19:40:13.202Z,7.61
2023-03-15T19:42:40.238Z,7.60
2023-03-15T19:45:08.295Z,7.57
2023-03-15T19:47:35.585Z,7.81
2023-03-15T19:50:03.234Z,7.47
2023-03-15T19:52:33.263Z,7.70
2023-03-15T19:55:04.313Z,7.83
2023-03-15T19:57:31.310Z,7.53
2023-03-15T19:59:58.262Z,7.55
2023-03-15T20:02:25.285Z,7.45
2023-03-15T20:04:52.220Z,7.80
2023-03-15T20:07:19.260Z,7.09
2023-03-15T20:09:46.327Z,7.27
2023-03-15T20:12:13.739Z,7.75
2023-03-15T20:14:41.027Z,7.57
2023-03-15T20:17:08.124Z,7.63
2023-03-15T20:19:36.184Z,7.31
2023-03-15T20:22:03.667Z,7.27
2023-03-15T20:24:30.837Z,7.46
2023-03-15T20:26:57.895Z,7.05
2023-03-15T20:29:24.954Z,7.56
2023-03-15T20:31:53.500Z,7.27
2023-03-15T20:34:22.193Z,7.15
2023-03-15T20:36:49.337Z,7.05
2023-03-15T20:39:18.564Z,6.96
2023-03-15T20:41:45.563Z,7.38
2023-03-15T20:44:12.947Z,7.25
2023-03-15T20:46:40.241Z,7.07
2023-03-15T20:49:07.317Z,6.46
2023-03-15T20:51:34.613Z,7.03
2023-03-15T20:54:01.846Z,6.57
2023-03-15T20:56:28.950Z,6.43
2023-03-15T20:58:56.181Z,6.39
2023-03-15T21:01:23.168Z,6.43
2023-03-15T21:03:50.470Z,5.87
2023-03-15T21:06:17.641Z,6.09
2023-03-15T21:08:46.146Z,6.42
2023-03-15T21:11:13.310Z,6.22
2023-03-15T21:13:40.370Z,6.42
2023-03-15T21:16:07.400Z,6.52
2023-03-15T21:18:36.144Z,6.19
2023-03-15T21:21:08.002Z,6.24
2023-03-15T21:23:40.026Z,6.36
2023-03-15T21:26:09.868Z,6.12
2023-03-15T21:28:37.608Z,6.09
2023-03-15T21:31:05.875Z,6.25
2023-03-15T21:33:34.084Z,6.26
2023-03-15T21:36:01.890Z,6.13
2023-03-15T21:38:31.591Z,5.93
2023-03-15T21:40:59.942Z,5.84
2023-03-15T21:43:29.459Z,6.26
2023-03-15T21:46:12.038Z,5.86
2023-03-15T21:48:39.306Z,6.20
2023-03-15T21:51:08.623Z,6.20
2023-03-15T21:53:36.918Z,6.02
2023-03-15T21:56:05.265Z,6.09
2023-03-15T21:58:32.612Z,5.96
2023-03-15T22:01:05.694Z,5.93
2023-03-15T22:03:34.497Z,6.27
2023-03-15T22:06:02.073Z,6.23
2023-03-15T22:08:29.047Z,6.01
2023-03-15T22:10:58.375Z,6.28
2023-03-15T22:13:26.269Z,6.19
2023-03-15T22:15:53.653Z,5.93
2023-03-15T22:18:21.245Z,6.12
2023-03-15T22:20:50.213Z,6.11
2023-03-15T22:23:18.431Z,5.80
2023-03-15T22:25:45.902Z,5.87
2023-03-15T22:28:13.554Z,5.83
2023-03-15T22:30:41.268Z,6.06
2023-03-15T22:33:08.844Z,6.20
2023-03-15T22:35:36.009Z,6.08
2023-03-15T22:38:10.200Z,6.03
2023-03-15T22:40:39.508Z,6.24
2023-03-15T22:43:08.141Z,6.25
2023-03-15T22:45:35.700Z,6.04
2023-03-15T22:48:02.974Z,6.20
2023-03-15T22:50:29.963Z,6.16
2023-03-15T22:52:57.148Z,5.99
2023-03-15T22:55:25.003Z,5.82
2023-03-15T22:57:52.142Z,6.00
2023-03-15T23:00:22.109Z,6.06
2023-03-15T23:02:49.479Z,5.85
2023-03-15T23:05:18.082Z,6.20
2023-03-15T23:07:45.624Z,5.59
2023-03-15T23:10:13.185Z,6.07
2023-03-15T23:12:40.229Z,6.33
2023-03-15T23:15:07.945Z,6.33
2023-03-15T23:17:35.088Z,6.19
2023-03-15T23:20:02.180Z,6.09
2023-03-15T23:22:30.042Z,6.25
2023-03-15T23:24:58.350Z,6.26
2023-03-15T23:27:26.262Z,6.24
2023-03-15T23:29:55.077Z,6.25
2023-03-15T23:32:25.146Z,6.01
2023-03-15T23:34:53.911Z,5.96
2023-03-15T23:37:21.337Z,6.29
2023-03-15T23:39:48.472Z,5.96
2023-03-15T23:42:15.611Z,6.06
2023-03-15T23:44:43.460Z,5.94
2023-03-15T23:47:10.872Z,6.30
2023-03-15T23:49:37.896Z,6.28
2023-03-15T23:52:05.943Z,6.31
2023-03-15T23:54:39.880Z,6.11
2023-03-15T23:57:09.473Z,6.13
2023-03-15T23:59:37.109Z,6.12
